Tea, SD (57064)

9:34 AM CST on December 21, 2014 (GMT -0600)
SW Sioux Falls | Change Station
CLOSE
Current Station
Personal Weather Station
Location: Sioux Falls, SD
Elevation: 1512 ft
Nearby Weather Stations

Elev 1512 ft 43.51 °N, 96.81 °W | Updated 22 seconds ago

Fog
Fog
31.6 °F
Feels Like 32 °F
N
2.9
Wind Variable Wind from SSE
Gusts 7.0 mph

Today
High -- | Low -- °F
--% Chance of Precip.
Yesterday
High -- | Low -- °F
Precip. -- in
7:56 AM 4:54 PM
Waning Crescent, 0% visible
Pressure 29.80 in
Visibility 0.1 miles
Clouds
Windchill 32 °F
Dew Point 31 °F
Humidity 98%
Rainfall 0.00 in
Snow Depth Not available.
UV Not available.
Pollen .10 out of 12
Air Quality Not available.
Flu Activity Not available.
METAR KFSD 211456Z 17011KT 1/8SM R03/1200FT FG VV002 00/00 A2975 RMK AO2 TWR VIS M1/4 SLP089 SGE58FZRAB58E18 P0000 60000 I1001 I3001 T00000000 58017

More Conditions Fewer Conditions

Pressure 29.80 in
Visibility 0.1 miles
Clouds
Windchill 32 °F
Dew Point 31 °F
Humidity 98%
Rainfall 0.00 in
Snow Depth Not available.
UV Not available.
Pollen .10 out of 12
Air Quality Not available.
Flu Activity Not available.
METAR KFSD 211456Z 17011KT 1/8SM R03/1200FT FG VV002 00/00 A2975 RMK AO2 TWR VIS M1/4 SLP089 SGE58FZRAB58E18 P0000 60000 I1001 I3001 T00000000 58017

More Conditions Fewer Conditions

10-Day Weather Forecast

Almanac

Astronomy

Dec. 21, 2014 Rise Set
Actual Time
Civil Twilight
Nautical Twilight
Astronomical Twilight
Moon
Length of Visible Light
Length of Day
Tomorrow will be .
, % of the Moon is Illuminated

Today's Extremes

State Highs State Lows

Community

WunderPhotos

Upload Photos

1,779,412 photos uploaded!

WunderBlogs® & News

Nearby

Air Quality

  Air Quality AQ Index Pollutant
Not available.

Snow Depth

Station Depth Elevation

Earthquake Activity

City Distance Mag. Time & Date
Minimum magnitude displayed is 2.5.

Coastal Water Temperatures

Place Temperature

Nearby Weather Stations